createdAt,value
2023-05-11T00:00:34.130Z,18.90
2023-05-11T00:03:00.707Z,19.00
2023-05-11T00:05:27.236Z,21.00
2023-05-11T00:07:53.604Z,21.83
2023-05-11T00:10:20.224Z,21.73
2023-05-11T00:12:46.756Z,23.67
2023-05-11T00:15:13.144Z,24.48
2023-05-11T00:17:39.548Z,21.38
2023-05-11T00:20:06.525Z,23.30
2023-05-11T00:22:32.971Z,21.15
2023-05-11T00:24:59.338Z,23.60
2023-05-11T00:27:25.738Z,24.92
2023-05-11T00:29:52.164Z,24.75
2023-05-11T00:32:18.589Z,23.73
2023-05-11T00:34:44.941Z,23.25
2023-05-11T00:37:11.342Z,24.27
2023-05-11T00:39:40.329Z,22.98
2023-05-11T00:42:07.172Z,25.98
2023-05-11T00:44:33.772Z,22.40
2023-05-11T00:47:00.257Z,28.27
2023-05-11T00:49:26.872Z,25.08
2023-05-11T00:51:53.328Z,23.55
2023-05-11T00:54:19.994Z,25.08
2023-05-11T00:56:46.361Z,25.83
2023-05-11T00:59:13.961Z,28.10
2023-05-11T01:01:40.506Z,26.10
2023-05-11T01:04:07.030Z,28.58
2023-05-11T01:06:49.121Z,26.05
2023-05-11T01:09:44.442Z,26.85
2023-05-11T01:12:18.768Z,29.05
2023-05-11T01:14:52.352Z,28.00
2023-05-11T01:17:23.783Z,28.02
2023-05-11T01:19:56.740Z,27.90
2023-05-11T01:22:44.876Z,27.58
2023-05-11T01:25:29.581Z,25.90
2023-05-11T01:28:33.535Z,27.13
2023-05-11T01:31:10.167Z,29.98
2023-05-11T01:33:39.860Z,33.38
2023-05-11T01:36:09.240Z,32.33
2023-05-11T01:38:38.382Z,35.58
2023-05-11T01:41:10.299Z,33.70
2023-05-11T01:43:37.645Z,36.70
2023-05-11T01:46:05.205Z,36.55
2023-05-11T01:48:34.021Z,36.90
2023-05-11T01:51:01.865Z,34.67
2023-05-11T01:53:31.427Z,36.58
2023-05-11T01:55:58.370Z,33.42
2023-05-11T01:58:25.812Z,34.20
2023-05-11T02:00:53.188Z,33.63
2023-05-11T02:03:21.159Z,37.47
2023-05-11T02:05:48.491Z,34.25
2023-05-11T02:08:15.491Z,33.03
2023-05-11T02:10:42.587Z,31.70
2023-05-11T02:13:10.087Z,34.15
2023-05-11T02:15:39.827Z,31.42
2023-05-11T02:18:08.315Z,29.63
2023-05-11T02:20:35.631Z,30.75
2023-05-11T02:23:02.662Z,29.60
2023-05-11T02:25:29.988Z,30.92
2023-05-11T02:27:56.406Z,31.15
2023-05-11T02:30:23.684Z,36.38
2023-05-11T02:32:53.023Z,32.80
2023-05-11T02:35:24.500Z,33.65
2023-05-11T02:37:54.274Z,32.75
2023-05-11T02:40:25.320Z,31.85
2023-05-11T02:42:59.160Z,34.25
2023-05-11T02:45:28.765Z,35.80
2023-05-11T02:47:56.127Z,32.13
2023-05-11T02:50:24.322Z,31.58
2023-05-11T02:52:56.191Z,30.52
2023-05-11T02:55:23.665Z,31.17
2023-05-11T02:57:50.235Z,30.98
2023-05-11T03:00:18.453Z,28.85
2023-05-11T03:02:45.199Z,30.15
2023-05-11T03:05:11.689Z,27.60
2023-05-11T03:07:38.139Z,26.17
2023-05-11T03:10:05.061Z,22.10
2023-05-11T03:12:33.886Z,25.10
2023-05-11T03:15:01.019Z,24.25
2023-05-11T03:17:28.906Z,24.67
2023-05-11T03:19:56.574Z,23.23
2023-05-11T03:22:23.351Z,26.90
2023-05-11T03:24:50.935Z,22.98
2023-05-11T03:27:18.442Z,21.27
2023-05-11T03:29:45.658Z,23.88
2023-05-11T03:32:12.673Z,20.65
2023-05-11T03:34:39.111Z,24.15
2023-05-11T03:37:06.640Z,24.48
2023-05-11T03:39:33.744Z,24.85
2023-05-11T03:42:01.563Z,25.38
2023-05-11T03:44:28.102Z,24.58
2023-05-11T03:46:55.724Z,25.95
2023-05-11T03:49:22.580Z,25.38
2023-05-11T03:51:48.982Z,22.10
2023-05-11T03:54:15.441Z,21.65
2023-05-11T03:56:41.858Z,23.25
2023-05-11T03:59:09.271Z,21.77
2023-05-11T04:01:36.376Z,19.65
2023-05-11T04:04:02.939Z,20.15
2023-05-11T04:06:29.434Z,20.75
2023-05-11T04:08:55.894Z,19.98
2023-05-11T04:11:23.239Z,18.52
2023-05-11T04:13:50.114Z,17.10
2023-05-11T04:16:16.677Z,17.65
2023-05-11T04:18:43.130Z,16.65
2023-05-11T04:21:09.518Z,14.70
2023-05-11T04:23:35.924Z,14.77
2023-05-11T04:26:02.431Z,15.05
2023-05-11T04:28:29.406Z,14.07
2023-05-11T04:30:57.010Z,15.98
2023-05-11T04:33:24.049Z,15.50
2023-05-11T04:35:51.566Z,14.98
2023-05-11T04:38:19.131Z,14.63
2023-05-11T04:40:46.962Z,16.40
2023-05-11T04:43:14.174Z,16.35
2023-05-11T04:45:40.823Z,15.25
2023-05-11T04:48:07.512Z,12.75
2023-05-11T04:50:34.269Z,12.00
2023-05-11T04:53:00.776Z,14.85
2023-05-11T04:55:27.217Z,13.82
2023-05-11T04:57:53.649Z,17.15
2023-05-11T05:00:20.802Z,13.48
2023-05-11T05:02:47.408Z,13.02
2023-05-11T05:05:13.795Z,12.32
2023-05-11T05:07:40.192Z,14.02
2023-05-11T05:10:08.881Z,15.20
2023-05-11T05:12:36.407Z,14.90
2023-05-11T05:15:03.349Z,13.55
2023-05-11T05:17:29.927Z,14.45
2023-05-11T05:19:57.900Z,13.50
2023-05-11T05:22:25.136Z,14.20
2023-05-11T05:24:51.559Z,14.27
2023-05-11T05:27:17.970Z,14.35
2023-05-11T05:29:44.413Z,14.45
2023-05-11T05:32:10.891Z,15.85
2023-05-11T05:34:37.271Z,16.15
2023-05-11T05:37:03.638Z,14.32
2023-05-11T05:39:30.037Z,15.98
2023-05-11T05:41:56.509Z,15.30
2023-05-11T05:44:23.083Z,16.60
2023-05-11T05:46:49.681Z,15.27
2023-05-11T05:49:16.440Z,15.98
2023-05-11T05:51:42.958Z,16.33
2023-05-11T05:54:09.445Z,16.67
2023-05-11T05:56:35.804Z,19.30
2023-05-11T05:59:02.238Z,17.42
2023-05-11T06:01:28.769Z,18.23
2023-05-11T06:03:56.427Z,14.77
2023-05-11T06:06:22.962Z,17.75
2023-05-11T06:08:49.401Z,15.60
2023-05-11T06:11:15.974Z,14.32
2023-05-11T06:13:42.384Z,14.40
2023-05-11T06:16:08.817Z,12.63
2023-05-11T06:18:35.417Z,13.25
2023-05-11T06:21:01.885Z,13.88
2023-05-11T06:23:28.301Z,14.90
2023-05-11T06:25:54.695Z,15.65
2023-05-11T06:28:24.281Z,18.33
2023-05-11T06:30:50.702Z,17.55
2023-05-11T06:33:17.066Z,15.55
2023-05-11T06:35:43.503Z,19.35
2023-05-11T06:38:09.919Z,17.88
2023-05-11T06:40:36.384Z,18.25
2023-05-11T06:43:02.902Z,19.52
2023-05-11T06:45:29.452Z,19.00
2023-05-11T06:47:55.960Z,18.75
2023-05-11T06:50:23.975Z,21.27
2023-05-11T06:52:52.212Z,19.25
2023-05-11T06:55:18.618Z,17.77
2023-05-11T06:57:47.311Z,16.02
2023-05-11T07:00:14.160Z,15.82
2023-05-11T07:02:40.630Z,15.63
2023-05-11T07:05:07.348Z,17.10
2023-05-11T07:07:33.819Z,17.20
2023-05-11T07:10:00.460Z,15.35
2023-05-11T07:12:26.935Z,13.02
2023-05-11T07:14:53.334Z,12.20
2023-05-11T07:17:19.890Z,12.15
2023-05-11T07:19:46.342Z,10.02
2023-05-11T07:22:14.854Z,8.00
2023-05-11T07:24:41.542Z,7.15
2023-05-11T07:27:08.115Z,6.60
2023-05-11T07:29:34.514Z,6.18
2023-05-11T07:32:01.303Z,6.30
2023-05-11T07:34:27.695Z,6.63
2023-05-11T07:36:54.130Z,5.43
2023-05-11T07:39:21.492Z,6.07
2023-05-11T07:41:48.005Z,4.95
2023-05-11T07:44:14.544Z,5.80
2023-05-11T07:46:41.042Z,5.45
2023-05-11T07:51:40.700Z,4.78
2023-05-11T07:54:07.185Z,4.35
2023-05-11T07:56:33.546Z,5.05
2023-05-11T07:58:59.998Z,4.00
2023-05-11T08:01:26.952Z,4.10
2023-05-11T08:03:56.289Z,4.50
2023-05-11T08:06:22.899Z,3.88
2023-05-11T08:08:49.385Z,3.83
2023-05-11T08:11:15.937Z,3.00
2023-05-11T08:13:42.355Z,3.05
2023-05-11T08:16:08.955Z,2.60
2023-05-11T08:18:35.476Z,2.40
2023-05-11T08:21:01.884Z,2.72
2023-05-11T08:23:28.356Z,2.28
2023-05-11T08:25:55.411Z,2.30
2023-05-11T08:28:22.203Z,1.88
2023-05-11T08:30:55.827Z,1.40
2023-05-11T08:33:36.455Z,1.23
2023-05-11T08:36:04.612Z,3.30
2023-05-11T08:38:31.040Z,1.70
2023-05-11T08:40:58.022Z,2.13
2023-05-11T08:43:25.781Z,2.28
2023-05-11T08:45:57.524Z,3.08
2023-05-11T08:48:24.327Z,2.97
2023-05-11T08:50:50.968Z,2.42
2023-05-11T08:53:17.360Z,2.67
2023-05-11T08:55:43.961Z,2.90
2023-05-11T08:58:12.057Z,2.97
2023-05-11T09:00:38.449Z,3.35
2023-05-11T09:03:04.919Z,3.60
2023-05-11T09:05:32.479Z,3.92
2023-05-11T09:08:04.210Z,3.30
2023-05-11T09:10:30.613Z,3.13
2023-05-11T09:12:57.046Z,3.58
2023-05-11T09:15:23.624Z,2.95
2023-05-11T09:17:50.196Z,3.00
2023-05-11T09:20:26.884Z,3.35
2023-05-11T09:22:53.774Z,3.15
2023-05-11T09:25:20.602Z,4.72
2023-05-11T09:27:47.402Z,3.30
2023-05-11T09:32:55.298Z,3.20
2023-05-11T09:35:26.555Z,2.95
2023-05-11T09:38:12.507Z,3.25
2023-05-11T09:40:50.814Z,3.05
2023-05-11T09:43:27.084Z,4.05
2023-05-11T09:45:56.128Z,2.90
2023-05-11T09:48:30.591Z,3.53
2023-05-11T09:51:07.686Z,3.70
2023-05-11T09:53:43.447Z,3.67
2023-05-11T09:56:10.983Z,3.83
2023-05-11T09:58:55.103Z,3.80
2023-05-11T10:01:34.779Z,3.50
2023-05-11T10:04:13.295Z,5.55
2023-05-11T10:06:49.389Z,5.80
2023-05-11T10:09:17.232Z,3.00
2023-05-11T10:11:45.706Z,3.55
2023-05-11T10:14:13.061Z,3.08
2023-05-11T10:16:43.745Z,2.95
2023-05-11T10:19:11.354Z,3.45
2023-05-11T10:21:38.432Z,2.50
2023-05-11T10:24:05.474Z,2.67
2023-05-11T10:26:33.337Z,3.05
2023-05-11T10:29:00.716Z,5.82
2023-05-11T10:31:28.317Z,2.90
2023-05-11T10:33:54.833Z,3.15
2023-05-11T10:36:24.123Z,3.22
2023-05-11T10:38:50.552Z,4.10
2023-05-11T10:41:39.466Z,4.22
2023-05-11T10:44:28.613Z,4.95
2023-05-11T10:47:05.605Z,5.18
2023-05-11T10:49:44.184Z,4.60
2023-05-11T10:52:39.531Z,5.05
2023-05-11T10:55:10.296Z,5.05
2023-05-11T10:58:02.136Z,5.47
2023-05-11T11:01:06.264Z,5.80
2023-05-11T11:03:32.819Z,6.15
2023-05-11T11:06:00.860Z,6.05
2023-05-11T11:08:28.548Z,5.85
2023-05-11T11:10:56.239Z,7.30
2023-05-11T11:13:24.416Z,7.10
2023-05-11T11:15:54.112Z,8.55
2023-05-11T11:18:28.421Z,7.28
2023-05-11T11:20:56.378Z,7.03
2023-05-11T11:23:46.168Z,8.38
2023-05-11T11:26:17.140Z,8.35
2023-05-11T11:29:01.873Z,8.77
2023-05-11T11:31:30.367Z,8.27
2023-05-11T11:33:59.036Z,8.38
2023-05-11T11:36:58.579Z,8.65
2023-05-11T11:39:26.786Z,9.18
2023-05-11T11:42:12.246Z,7.97
2023-05-11T11:44:39.726Z,8.45
2023-05-11T11:47:25.040Z,8.63
2023-05-11T11:49:55.905Z,9.18
2023-05-11T11:52:31.255Z,8.38
2023-05-11T11:55:02.034Z,7.68
2023-05-11T11:57:34.461Z,7.85
2023-05-11T12:02:27.940Z,7.63
2023-05-11T12:05:01.272Z,8.77
2023-05-11T12:07:33.201Z,8.52
2023-05-11T12:10:03.154Z,8.45
2023-05-11T12:12:30.544Z,7.47
2023-05-11T12:14:57.734Z,7.60
2023-05-11T12:17:26.856Z,7.72
2023-05-11T12:19:53.924Z,7.80
2023-05-11T12:22:24.727Z,8.77
2023-05-11T12:24:51.701Z,9.98
2023-05-11T12:27:21.135Z,10.15
2023-05-11T12:29:54.076Z,11.32
2023-05-11T12:32:30.848Z,12.38
2023-05-11T12:34:59.388Z,13.57
2023-05-11T12:37:25.909Z,13.35
2023-05-11T12:39:58.497Z,13.00
2023-05-11T12:42:24.958Z,13.02
2023-05-11T12:44:51.603Z,12.73
2023-05-11T12:47:18.211Z,11.90
2023-05-11T12:49:45.153Z,11.10
2023-05-11T12:52:13.777Z,11.30
2023-05-11T12:54:41.805Z,12.32
2023-05-11T12:57:09.394Z,12.00
2023-05-11T12:59:37.752Z,12.27
2023-05-11T13:02:05.988Z,11.43
2023-05-11T13:04:33.109Z,9.77
2023-05-11T13:06:59.590Z,9.35
2023-05-11T13:09:26.701Z,10.25
2023-05-11T13:12:14.578Z,9.13
2023-05-11T13:14:41.578Z,7.45
2023-05-11T13:17:08.443Z,7.72
2023-05-11T13:19:34.867Z,7.53
2023-05-11T13:22:01.373Z,7.40
2023-05-11T13:24:27.852Z,6.85
2023-05-11T13:26:55.536Z,6.53
2023-05-11T13:29:21.915Z,5.85
2023-05-11T13:31:52.724Z,5.93
2023-05-11T13:34:20.375Z,6.55
2023-05-11T13:36:47.205Z,5.75
2023-05-11T13:39:13.598Z,6.63
2023-05-11T13:41:40.012Z,5.40
2023-05-11T13:44:06.439Z,5.97
2023-05-11T13:46:32.916Z,6.00
2023-05-11T13:49:00.438Z,5.88
2023-05-11T13:51:27.596Z,6.70
2023-05-11T13:53:54.410Z,6.30
2023-05-11T13:56:21.876Z,6.82
2023-05-11T13:58:48.297Z,7.50
2023-05-11T14:01:14.800Z,6.60
2023-05-11T14:03:41.267Z,7.25
2023-05-11T14:06:07.843Z,8.23
2023-05-11T14:08:34.246Z,7.85
2023-05-11T14:11:01.055Z,6.90
2023-05-11T14:13:27.442Z,8.60
2023-05-11T14:15:54.162Z,7.20
2023-05-11T14:18:20.904Z,6.57
2023-05-11T14:20:47.427Z,7.45
2023-05-11T14:23:13.882Z,7.20
2023-05-11T14:25:40.350Z,7.35
2023-05-11T14:28:07.323Z,7.65
2023-05-11T14:30:33.816Z,7.85
2023-05-11T14:33:00.678Z,7.15
2023-05-11T14:35:27.204Z,7.60
2023-05-11T14:37:54.640Z,7.72
2023-05-11T14:40:21.211Z,8.00
2023-05-11T14:42:47.650Z,8.35
2023-05-11T14:45:14.155Z,8.20
2023-05-11T14:47:40.725Z,7.35
2023-05-11T14:50:07.951Z,10.98
2023-05-11T14:52:34.368Z,7.20
2023-05-11T14:55:00.767Z,7.28
2023-05-11T14:57:27.226Z,6.57
2023-05-11T15:00:00.271Z,7.97
2023-05-11T15:02:27.238Z,7.07
2023-05-11T15:04:53.853Z,7.05
2023-05-11T15:07:20.532Z,6.93
2023-05-11T15:09:46.986Z,7.10
2023-05-11T15:12:13.475Z,7.18
2023-05-11T15:14:39.925Z,6.50
2023-05-11T15:17:06.452Z,6.22
2023-05-11T15:19:32.859Z,5.75
2023-05-11T15:21:59.254Z,5.85
2023-05-11T15:24:25.652Z,5.97
2023-05-11T15:26:52.076Z,6.22
2023-05-11T15:29:19.082Z,5.90
2023-05-11T15:31:45.702Z,6.40
2023-05-11T15:34:12.275Z,6.32
2023-05-11T15:36:39.105Z,6.47
2023-05-11T15:39:05.500Z,6.55
2023-05-11T15:41:31.881Z,6.88
2023-05-11T15:43:58.295Z,7.72
2023-05-11T15:46:24.869Z,7.57
2023-05-11T15:48:51.737Z,7.57
2023-05-11T15:51:19.013Z,7.10
2023-05-11T15:53:45.690Z,7.63
2023-05-11T15:56:12.075Z,7.55
2023-05-11T15:58:38.489Z,8.63
2023-05-11T16:01:04.895Z,8.15
2023-05-11T16:03:32.513Z,10.30
2023-05-11T16:05:59.102Z,9.15
2023-05-11T16:08:25.589Z,9.23
2023-05-11T16:10:52.491Z,9.93
2023-05-11T16:13:18.854Z,10.52
2023-05-11T16:15:45.367Z,9.40
2023-05-11T16:18:11.879Z,11.68
2023-05-11T16:20:38.410Z,9.70
2023-05-11T16:23:05.336Z,11.32
2023-05-11T16:25:31.792Z,10.07
2023-05-11T16:27:58.160Z,9.43
2023-05-11T16:30:25.722Z,10.40
2023-05-11T16:32:53.267Z,9.60
2023-05-11T16:35:20.323Z,9.40
2023-05-11T16:37:48.322Z,9.70
2023-05-11T16:40:15.194Z,12.18
2023-05-11T16:42:42.263Z,11.38
2023-05-11T16:45:09.127Z,10.30
2023-05-11T16:47:35.807Z,12.73
2023-05-11T16:50:02.202Z,12.60
2023-05-11T16:52:28.584Z,10.43
2023-05-11T16:54:58.808Z,11.52
2023-05-11T16:57:25.587Z,13.00
2023-05-11T16:59:52.637Z,14.32
2023-05-11T17:02:19.910Z,14.10
2023-05-11T17:04:46.435Z,14.77
2023-05-11T17:07:14.727Z,13.88
2023-05-11T17:09:41.177Z,14.68
2023-05-11T17:12:09.906Z,15.38
2023-05-11T17:14:36.682Z,17.10
2023-05-11T17:17:04.687Z,15.32
2023-05-11T17:19:31.695Z,15.10
2023-05-11T17:21:58.579Z,16.65
2023-05-11T17:24:25.122Z,14.85
2023-05-11T17:26:51.586Z,16.95
2023-05-11T17:29:18.055Z,17.50
2023-05-11T17:31:46.642Z,17.38
2023-05-11T17:34:13.233Z,16.83
2023-05-11T17:36:39.742Z,18.00
2023-05-11T17:39:06.142Z,19.63
2023-05-11T17:41:32.586Z,18.02
2023-05-11T17:43:58.967Z,19.20
2023-05-11T17:46:25.620Z,18.55
2023-05-11T17:48:52.961Z,18.17
2023-05-11T17:51:20.671Z,18.38
2023-05-11T17:53:47.554Z,18.90
2023-05-11T17:56:13.953Z,19.30
2023-05-11T17:58:40.408Z,18.85
2023-05-11T18:01:09.266Z,24.83
2023-05-11T18:03:35.909Z,19.33
2023-05-11T18:06:02.491Z,21.90
2023-05-11T18:08:29.065Z,22.08
2023-05-11T18:10:55.632Z,19.92
2023-05-11T18:13:22.709Z,22.73
2023-05-11T18:15:49.226Z,21.00
2023-05-11T18:18:15.954Z,19.92
2023-05-11T18:20:45.436Z,22.95
2023-05-11T18:23:12.896Z,20.88
2023-05-11T18:25:39.777Z,20.48
2023-05-11T18:28:06.172Z,20.95
2023-05-11T18:30:33.550Z,22.20
2023-05-11T18:33:00.067Z,22.45
2023-05-11T18:35:26.501Z,22.05
2023-05-11T18:37:53.036Z,23.17
2023-05-11T18:40:20.050Z,25.30
2023-05-11T18:42:49.448Z,25.67
2023-05-11T18:45:17.434Z,26.58
2023-05-11T18:47:44.440Z,23.88
2023-05-11T18:50:11.187Z,25.60
2023-05-11T18:52:37.926Z,28.48
2023-05-11T18:55:04.438Z,27.88
2023-05-11T18:57:32.537Z,24.98
2023-05-11T18:59:58.894Z,29.90
2023-05-11T19:02:25.350Z,29.38
2023-05-11T19:04:51.829Z,27.50
2023-05-11T19:07:20.245Z,27.75
2023-05-11T19:09:46.908Z,29.63
2023-05-11T19:12:13.340Z,29.20
2023-05-11T19:14:39.793Z,26.85
2023-05-11T19:17:06.385Z,30.17
2023-05-11T19:19:32.810Z,28.45
2023-05-11T19:21:59.703Z,30.55
2023-05-11T19:24:26.309Z,31.33
2023-05-11T19:27:05.941Z,30.17
2023-05-11T19:29:33.410Z,27.75
2023-05-11T19:31:59.826Z,31.90
2023-05-11T19:34:26.214Z,29.83
2023-05-11T19:36:52.594Z,29.33
2023-05-11T19:39:19.055Z,31.98
2023-05-11T19:41:45.544Z,34.58
2023-05-11T19:44:11.949Z,34.38
2023-05-11T19:46:45.503Z,33.72
2023-05-11T19:49:16.170Z,33.70
2023-05-11T19:51:43.330Z,35.25
2023-05-11T19:54:10.867Z,37.00
2023-05-11T19:56:37.299Z,33.20
2023-05-11T19:59:04.621Z,35.75
2023-05-11T20:01:31.223Z,37.40
2023-05-11T20:03:57.944Z,33.95
2023-05-11T20:06:25.487Z,37.20
2023-05-11T20:08:52.701Z,40.75
2023-05-11T20:11:19.285Z,40.20
2023-05-11T20:13:46.725Z,41.65
2023-05-11T20:16:13.514Z,40.42
2023-05-11T20:18:40.108Z,44.83
2023-05-11T20:21:07.080Z,41.25
2023-05-11T20:23:35.310Z,45.30
2023-05-11T20:26:03.678Z,43.22
2023-05-11T20:28:30.061Z,44.85
2023-05-11T20:30:56.462Z,45.88
2023-05-11T20:35:53.553Z,46.88
2023-05-11T20:38:20.136Z,45.97
2023-05-11T20:40:46.714Z,49.28
2023-05-11T20:43:14.523Z,45.40
2023-05-11T20:45:41.644Z,45.15
2023-05-11T20:48:08.181Z,45.05
2023-05-11T20:50:34.711Z,45.70
2023-05-11T20:53:01.090Z,46.30
2023-05-11T20:55:27.463Z,44.13
2023-05-11T20:57:53.834Z,43.90
2023-05-11T21:00:20.533Z,44.70
2023-05-11T21:02:47.205Z,43.78
2023-05-11T21:05:13.943Z,48.63
2023-05-11T21:07:40.363Z,48.85
2023-05-11T21:10:07.053Z,47.65
2023-05-11T21:12:33.457Z,46.42
2023-05-11T21:14:59.854Z,45.63
2023-05-11T21:17:26.290Z,48.20
2023-05-11T21:19:52.685Z,44.63
2023-05-11T21:22:19.178Z,53.35
2023-05-11T21:24:45.566Z,43.38
2023-05-11T21:27:11.950Z,49.47
2023-05-11T21:29:38.344Z,48.20
2023-05-11T21:32:05.119Z,46.22
2023-05-11T21:34:31.490Z,49.35
2023-05-11T21:36:59.576Z,53.70
2023-05-11T21:39:25.999Z,49.40
2023-05-11T21:41:52.377Z,53.83
2023-05-11T21:44:19.522Z,55.92
2023-05-11T21:46:46.648Z,53.53
2023-05-11T21:49:13.549Z,55.65
2023-05-11T21:51:39.941Z,53.38
2023-05-11T21:54:06.615Z,62.42
2023-05-11T21:56:32.984Z,61.63
2023-05-11T21:58:59.365Z,60.33
2023-05-11T22:01:25.840Z,57.75
2023-05-11T22:03:52.468Z,62.47
2023-05-11T22:06:18.908Z,58.65
2023-05-11T22:08:45.292Z,58.05
2023-05-11T22:11:11.698Z,61.47
2023-05-11T22:13:38.088Z,57.47
2023-05-11T22:16:04.953Z,60.70
2023-05-11T22:18:31.391Z,66.80
2023-05-11T22:20:57.781Z,58.72
2023-05-11T22:23:24.169Z,62.70
2023-05-11T22:25:50.624Z,66.93
2023-05-11T22:28:17.551Z,64.78
2023-05-11T22:30:43.942Z,61.85
2023-05-11T22:33:10.554Z,56.50
2023-05-11T22:35:36.984Z,60.22
2023-05-11T22:38:04.237Z,59.08
2023-05-11T22:40:30.619Z,56.55
2023-05-11T22:42:57.038Z,57.78
2023-05-11T22:45:23.415Z,58.47
2023-05-11T22:47:49.899Z,59.00
2023-05-11T22:50:16.501Z,59.50
2023-05-11T22:52:42.944Z,55.80
2023-05-11T22:55:09.537Z,57.22
2023-05-11T22:57:35.911Z,63.42
2023-05-11T23:00:02.268Z,64.90
2023-05-11T23:02:29.903Z,63.50
2023-05-11T23:04:56.562Z,59.75
2023-05-11T23:07:38.031Z,61.58
2023-05-11T23:10:04.576Z,63.10
2023-05-11T23:12:30.920Z,62.70
2023-05-11T23:14:57.287Z,62.53
2023-05-11T23:17:23.872Z,60.05
2023-05-11T23:19:50.286Z,64.88
2023-05-11T23:22:16.661Z,58.42
2023-05-11T23:24:43.032Z,59.80
2023-05-11T23:27:09.656Z,55.20
2023-05-11T23:29:36.064Z,56.47
2023-05-11T23:32:03.581Z,53.65
2023-05-11T23:34:29.970Z,50.30
2023-05-11T23:36:56.386Z,50.63
2023-05-11T23:39:22.826Z,55.00
2023-05-11T23:41:49.210Z,55.15
2023-05-11T23:44:17.410Z,58.63
2023-05-11T23:46:43.921Z,52.00
2023-05-11T23:49:10.320Z,86.18
2023-05-11T23:51:36.842Z,55.75
2023-05-11T23:54:03.242Z,53.75
2023-05-11T23:56:29.684Z,53.47
2023-05-11T23:58:56.109Z,48.30
